sensor_id;sensor_type;location;lat;lon;timestamp;temperature;humidity
3360;DHT22;1693;49.602;11.046;2022-12-18T00:02:04;-11.90;99.90
3360;DHT22;1693;49.602;11.046;2022-12-18T00:04:32;-11.90;99.90
3360;DHT22;1693;49.602;11.046;2022-12-18T00:07:01;-11.80;99.90
3360;DHT22;1693;49.602;11.046;2022-12-18T00:09:30;-11.90;99.90
3360;DHT22;1693;49.602;11.046;2022-12-18T00:11:59;-11.90;99.90
3360;DHT22;1693;49.602;11.046;2022-12-18T00:14:28;-12.00;99.90
3360;DHT22;1693;49.602;11.046;2022-12-18T00:16:56;-12.00;99.90
3360;DHT22;1693;49.602;11.046;2022-12-18T00:19:27;-12.00;99.90
3360;DHT22;1693;49.602;11.046;2022-12-18T00:21:54;-12.00;99.90
3360;DHT22;1693;49.602;11.046;2022-12-18T00:24:21;-12.10;99.90
3360;DHT22;1693;49.602;11.046;2022-12-18T00:26:48;-12.10;99.90
3360;DHT22;1693;49.602;11.046;2022-12-18T00:29:16;-12.10;99.90
3360;DHT22;1693;49.602;11.046;2022-12-18T00:31:44;-12.00;99.90
3360;DHT22;1693;49.602;11.046;2022-12-18T00:34:13;-12.10;99.90
3360;DHT22;1693;49.602;11.046;2022-12-18T00:36:47;-12.20;99.90
3360;DHT22;1693;49.602;11.046;2022-12-18T00:39:15;-12.30;99.90
3360;DHT22;1693;49.602;11.046;2022-12-18T00:41:42;-12.30;99.90
3360;DHT22;1693;49.602;11.046;2022-12-18T00:44:27;-12.30;99.90
3360;DHT22;1693;49.602;11.046;2022-12-18T00:46:59;-12.30;99.90
3360;DHT22;1693;49.602;11.046;2022-12-18T00:49:28;-12.30;99.90
3360;DHT22;1693;49.602;11.046;2022-12-18T00:51:57;-12.30;99.90
3360;DHT22;1693;49.602;11.046;2022-12-18T00:54:25;-12.30;99.90
3360;DHT22;1693;49.602;11.046;2022-12-18T00:56:52;-12.30;99.90
3360;DHT22;1693;49.602;11.046;2022-12-18T00:59:21;-12.30;99.90
3360;DHT22;1693;49.602;11.046;2022-12-18T01:01:49;-12.40;99.90
3360;DHT22;1693;49.602;11.046;2022-12-18T01:04:18;-12.30;99.90
3360;DHT22;1693;49.602;11.046;2022-12-18T01:06:46;-12.30;99.90
3360;DHT22;1693;49.602;11.046;2022-12-18T01:09:14;-12.30;99.90
3360;DHT22;1693;49.602;11.046;2022-12-18T01:11:44;-12.30;99.90
3360;DHT22;1693;49.602;11.046;2022-12-18T01:14:14;-12.30;99.90
3360;DHT22;1693;49.602;11.046;2022-12-18T01:16:45;-12.40;99.90
3360;DHT22;1693;49.602;11.046;2022-12-18T01:19:14;-12.30;99.90
3360;DHT22;1693;49.602;11.046;2022-12-18T01:21:41;-12.40;99.90
3360;DHT22;1693;49.602;11.046;2022-12-18T01:24:11;-12.30;99.90
3360;DHT22;1693;49.602;11.046;2022-12-18T01:26:40;-12.30;99.90
3360;DHT22;1693;49.602;11.046;2022-12-18T01:29:07;-12.40;99.90
3360;DHT22;1693;49.602;11.046;2022-12-18T01:31:35;-12.50;99.90
3360;DHT22;1693;49.602;11.046;2022-12-18T01:34:04;-12.60;99.90
3360;DHT22;1693;49.602;11.046;2022-12-18T01:36:34;-12.70;99.90
3360;DHT22;1693;49.602;11.046;2022-12-18T01:39:05;-12.70;99.90
3360;DHT22;1693;49.602;11.046;2022-12-18T01:41:33;-12.70;99.90
3360;DHT22;1693;49.602;11.046;2022-12-18T01:47:32;-12.60;99.90
3360;DHT22;1693;49.602;11.046;2022-12-18T01:50:06;-12.60;99.90
3360;DHT22;1693;49.602;11.046;2022-12-18T01:52:36;-12.60;99.90
3360;DHT22;1693;49.602;11.046;2022-12-18T01:55:08;-12.60;99.90
3360;DHT22;1693;49.602;11.046;2022-12-18T01:57:36;-12.70;99.90
3360;DHT22;1693;49.602;11.046;2022-12-18T02:00:08;-12.70;99.90
3360;DHT22;1693;49.602;11.046;2022-12-18T02:02:39;-12.70;99.90
3360;DHT22;1693;49.602;11.046;2022-12-18T02:05:09;-12.60;99.90
3360;DHT22;1693;49.602;11.046;2022-12-18T02:07:43;-12.70;99.90
3360;DHT22;1693;49.602;11.046;2022-12-18T02:10:17;-12.70;99.90
3360;DHT22;1693;49.602;11.046;2022-12-18T02:12:53;-12.70;99.90
3360;DHT22;1693;49.602;11.046;2022-12-18T02:15:28;-12.70;99.90
3360;DHT22;1693;49.602;11.046;2022-12-18T02:18:06;-12.60;99.90
3360;DHT22;1693;49.602;11.046;2022-12-18T02:20:38;-12.60;99.90
3360;DHT22;1693;49.602;11.046;2022-12-18T02:23:19;-12.60;99.90
3360;DHT22;1693;49.602;11.046;2022-12-18T02:26:10;-12.60;99.90
3360;DHT22;1693;49.602;11.046;2022-12-18T02:28:42;-12.60;99.90
3360;DHT22;1693;49.602;11.046;2022-12-18T02:31:19;-12.70;99.90
3360;DHT22;1693;49.602;11.046;2022-12-18T02:33:49;-12.80;99.90
3360;DHT22;1693;49.602;11.046;2022-12-18T02:36:20;-12.80;99.90
3360;DHT22;1693;49.602;11.046;2022-12-18T02:38:50;-12.80;99.90
3360;DHT22;1693;49.602;11.046;2022-12-18T02:41:20;-12.80;99.90
3360;DHT22;1693;49.602;11.046;2022-12-18T02:43:50;-12.70;99.90
3360;DHT22;1693;49.602;11.046;2022-12-18T02:46:35;-12.80;99.90
3360;DHT22;1693;49.602;11.046;2022-12-18T02:49:13;-12.80;99.90
3360;DHT22;1693;49.602;11.046;2022-12-18T02:51:51;-12.70;99.90
3360;DHT22;1693;49.602;11.046;2022-12-18T02:54:39;-12.70;99.90
3360;DHT22;1693;49.602;11.046;2022-12-18T02:57:18;-12.70;99.90
3360;DHT22;1693;49.602;11.046;2022-12-18T02:59:54;-12.80;99.90
3360;DHT22;1693;49.602;11.046;2022-12-18T03:02:28;-12.70;99.90
3360;DHT22;1693;49.602;11.046;2022-12-18T03:05:03;-12.70;99.90
3360;DHT22;1693;49.602;11.046;2022-12-18T03:07:37;-12.70;99.90
3360;DHT22;1693;49.602;11.046;2022-12-18T03:10:08;-12.60;99.90
3360;DHT22;1693;49.602;11.046;2022-12-18T03:12:46;-12.60;99.90
3360;DHT22;1693;49.602;11.046;2022-12-18T03:15:18;-12.70;99.90
3360;DHT22;1693;49.602;11.046;2022-12-18T03:17:52;-12.60;99.90
3360;DHT22;1693;49.602;11.046;2022-12-18T03:20:21;-12.60;99.90
3360;DHT22;1693;49.602;11.046;2022-12-18T03:22:55;-12.70;99.90
3360;DHT22;1693;49.602;11.046;2022-12-18T03:25:27;-12.70;99.90
3360;DHT22;1693;49.602;11.046;2022-12-18T03:27:58;-12.70;99.90
3360;DHT22;1693;49.602;11.046;2022-12-18T03:30:29;-12.80;99.90
3360;DHT22;1693;49.602;11.046;2022-12-18T03:33:02;-12.80;99.90
3360;DHT22;1693;49.602;11.046;2022-12-18T03:35:36;-12.80;99.90
3360;DHT22;1693;49.602;11.046;2022-12-18T03:38:06;-12.80;99.90
3360;DHT22;1693;49.602;11.046;2022-12-18T03:40:41;-12.90;99.90
3360;DHT22;1693;49.602;11.046;2022-12-18T03:43:19;-12.90;99.90
3360;DHT22;1693;49.602;11.046;2022-12-18T03:45:52;-12.80;99.90
3360;DHT22;1693;49.602;11.046;2022-12-18T03:48:26;-12.80;99.90
3360;DHT22;1693;49.602;11.046;2022-12-18T03:50:59;-12.70;99.90
3360;DHT22;1693;49.602;11.046;2022-12-18T03:53:36;-12.80;99.90
3360;DHT22;1693;49.602;11.046;2022-12-18T03:56:07;-12.90;99.90
3360;DHT22;1693;49.602;11.046;2022-12-18T03:58:37;-12.80;99.90
3360;DHT22;1693;49.602;11.046;2022-12-18T04:01:06;-12.80;99.90
3360;DHT22;1693;49.602;11.046;2022-12-18T04:03:37;-12.60;99.90
3360;DHT22;1693;49.602;11.046;2022-12-18T04:06:06;-12.60;99.90
3360;DHT22;1693;49.602;11.046;2022-12-18T04:08:35;-12.50;99.90
3360;DHT22;1693;49.602;11.046;2022-12-18T04:11:03;-12.40;99.90
3360;DHT22;1693;49.602;11.046;2022-12-18T04:13:34;-12.40;99.90
3360;DHT22;1693;49.602;11.046;2022-12-18T04:16:05;-12.40;99.90
3360;DHT22;1693;49.602;11.046;2022-12-18T04:18:34;-12.30;99.90
3360;DHT22;1693;49.602;11.046;2022-12-18T04:21:04;-12.30;99.90
3360;DHT22;1693;49.602;11.046;2022-12-18T04:23:31;-12.40;99.90
3360;DHT22;1693;49.602;11.046;2022-12-18T04:25:58;-12.20;99.90
3360;DHT22;1693;49.602;11.046;2022-12-18T04:28:27;-12.20;99.90
3360;DHT22;1693;49.602;11.046;2022-12-18T04:30:55;-12.10;99.90
3360;DHT22;1693;49.602;11.046;2022-12-18T04:33:25;-12.00;99.90
3360;DHT22;1693;49.602;11.046;2022-12-18T04:35:54;-11.90;99.90
3360;DHT22;1693;49.602;11.046;2022-12-18T04:38:21;-12.00;99.90
3360;DHT22;1693;49.602;11.046;2022-12-18T04:40:48;-11.90;99.90
3360;DHT22;1693;49.602;11.046;2022-12-18T04:43:17;-11.90;99.90
3360;DHT22;1693;49.602;11.046;2022-12-18T04:45:46;-12.10;99.90
3360;DHT22;1693;49.602;11.046;2022-12-18T04:48:18;-12.10;99.90
3360;DHT22;1693;49.602;11.046;2022-12-18T04:50:48;-12.10;99.90
3360;DHT22;1693;49.602;11.046;2022-12-18T04:53:17;-12.10;99.90
3360;DHT22;1693;49.602;11.046;2022-12-18T04:55:44;-12.00;99.90
3360;DHT22;1693;49.602;11.046;2022-12-18T04:58:12;-11.90;99.90
3360;DHT22;1693;49.602;11.046;2022-12-18T05:00:40;-11.80;99.90
3360;DHT22;1693;49.602;11.046;2022-12-18T05:03:07;-11.60;99.90
3360;DHT22;1693;49.602;11.046;2022-12-18T05:05:35;-11.50;99.90
3360;DHT22;1693;49.602;11.046;2022-12-18T05:08:05;-11.40;99.90
3360;DHT22;1693;49.602;11.046;2022-12-18T05:10:32;-11.20;99.90
3360;DHT22;1693;49.602;11.046;2022-12-18T05:12:59;-11.20;99.90
3360;DHT22;1693;49.602;11.046;2022-12-18T05:15:28;-11.10;99.90
3360;DHT22;1693;49.602;11.046;2022-12-18T05:17:58;-11.10;99.90
3360;DHT22;1693;49.602;11.046;2022-12-18T05:20:27;-11.00;99.90
3360;DHT22;1693;49.602;11.046;2022-12-18T05:22:56;-10.80;99.90
3360;DHT22;1693;49.602;11.046;2022-12-18T05:25:24;-10.60;99.90
3360;DHT22;1693;49.602;11.046;2022-12-18T05:27:51;-10.50;99.90
3360;DHT22;1693;49.602;11.046;2022-12-18T05:30:18;-10.30;99.90
3360;DHT22;1693;49.602;11.046;2022-12-18T05:32:47;-10.20;99.90
3360;DHT22;1693;49.602;11.046;2022-12-18T05:35:15;-10.20;99.90
3360;DHT22;1693;49.602;11.046;2022-12-18T05:37:43;-10.00;99.90
3360;DHT22;1693;49.602;11.046;2022-12-18T05:40:12;-9.80;99.90
3360;DHT22;1693;49.602;11.046;2022-12-18T05:42:43;-9.70;99.90
3360;DHT22;1693;49.602;11.046;2022-12-18T05:45:10;-9.70;99.90
3360;DHT22;1693;49.602;11.046;2022-12-18T05:47:38;-9.60;99.90
3360;DHT22;1693;49.602;11.046;2022-12-18T05:50:08;-9.40;99.90
3360;DHT22;1693;49.602;11.046;2022-12-18T05:52:36;-9.30;99.90
3360;DHT22;1693;49.602;11.046;2022-12-18T05:55:04;-9.10;99.90
3360;DHT22;1693;49.602;11.046;2022-12-18T05:57:31;-9.10;99.90
3360;DHT22;1693;49.602;11.046;2022-12-18T06:00:01;-9.00;99.90
3360;DHT22;1693;49.602;11.046;2022-12-18T06:02:29;-8.90;99.90
3360;DHT22;1693;49.602;11.046;2022-12-18T06:04:57;-8.70;99.90
3360;DHT22;1693;49.602;11.046;2022-12-18T06:07:24;-8.60;99.90
3360;DHT22;1693;49.602;11.046;2022-12-18T06:09:51;-8.50;99.90
3360;DHT22;1693;49.602;11.046;2022-12-18T06:12:18;-8.40;99.90
3360;DHT22;1693;49.602;11.046;2022-12-18T06:14:45;-8.30;99.90
3360;DHT22;1693;49.602;11.046;2022-12-18T06:17:14;-8.10;99.90
3360;DHT22;1693;49.602;11.046;2022-12-18T06:19:43;-8.10;99.90
3360;DHT22;1693;49.602;11.046;2022-12-18T06:22:11;-7.90;99.90
3360;DHT22;1693;49.602;11.046;2022-12-18T06:24:39;-7.90;99.90
3360;DHT22;1693;49.602;11.046;2022-12-18T06:27:08;-7.90;99.90
3360;DHT22;1693;49.602;11.046;2022-12-18T06:29:36;-7.80;99.90
3360;DHT22;1693;49.602;11.046;2022-12-18T06:32:04;-7.70;99.90
3360;DHT22;1693;49.602;11.046;2022-12-18T06:34:37;-7.80;99.90
3360;DHT22;1693;49.602;11.046;2022-12-18T06:37:04;-7.90;99.90
3360;DHT22;1693;49.602;11.046;2022-12-18T06:39:32;-7.80;99.90
3360;DHT22;1693;49.602;11.046;2022-12-18T06:42:01;-7.90;99.90
3360;DHT22;1693;49.602;11.046;2022-12-18T06:44:29;-7.80;99.90
3360;DHT22;1693;49.602;11.046;2022-12-18T06:46:57;-7.70;99.90
3360;DHT22;1693;49.602;11.046;2022-12-18T06:49:25;-7.70;99.90
3360;DHT22;1693;49.602;11.046;2022-12-18T06:51:53;-7.80;99.90
3360;DHT22;1693;49.602;11.046;2022-12-18T06:54:22;-7.70;99.90
3360;DHT22;1693;49.602;11.046;2022-12-18T06:56:50;-7.80;99.90
3360;DHT22;1693;49.602;11.046;2022-12-18T06:59:19;-7.70;99.90
3360;DHT22;1693;49.602;11.046;2022-12-18T07:01:48;-7.70;99.90
3360;DHT22;1693;49.602;11.046;2022-12-18T07:04:17;-7.60;99.90
3360;DHT22;1693;49.602;11.046;2022-12-18T07:06:44;-7.50;99.90
3360;DHT22;1693;49.602;11.046;2022-12-18T07:09:13;-7.40;99.90
3360;DHT22;1693;49.602;11.046;2022-12-18T07:11:41;-7.30;99.90
3360;DHT22;1693;49.602;11.046;2022-12-18T07:14:09;-7.20;99.90
3360;DHT22;1693;49.602;11.046;2022-12-18T07:16:36;-7.10;99.90
3360;DHT22;1693;49.602;11.046;2022-12-18T07:19:05;-7.10;99.90
3360;DHT22;1693;49.602;11.046;2022-12-18T07:21:32;-7.10;99.90
3360;DHT22;1693;49.602;11.046;2022-12-18T07:23:59;-7.10;99.90
3360;DHT22;1693;49.602;11.046;2022-12-18T07:26:32;-7.00;99.90
3360;DHT22;1693;49.602;11.046;2022-12-18T07:29:00;-6.90;99.90
3360;DHT22;1693;49.602;11.046;2022-12-18T07:31:28;-6.90;99.90
3360;DHT22;1693;49.602;11.046;2022-12-18T07:33:56;-6.90;99.90
3360;DHT22;1693;49.602;11.046;2022-12-18T07:36:23;-6.70;99.90
3360;DHT22;1693;49.602;11.046;2022-12-18T07:38:51;-6.70;99.90
3360;DHT22;1693;49.602;11.046;2022-12-18T07:41:20;-6.60;99.90
3360;DHT22;1693;49.602;11.046;2022-12-18T07:43:51;-6.50;99.90
3360;DHT22;1693;49.602;11.046;2022-12-18T07:46:19;-6.50;99.90
3360;DHT22;1693;49.602;11.046;2022-12-18T07:48:48;-6.40;99.90
3360;DHT22;1693;49.602;11.046;2022-12-18T07:51:15;-6.30;99.90
3360;DHT22;1693;49.602;11.046;2022-12-18T07:53:42;-6.20;99.90
3360;DHT22;1693;49.602;11.046;2022-12-18T07:56:11;-6.10;99.90
3360;DHT22;1693;49.602;11.046;2022-12-18T07:58:40;-6.00;99.90
3360;DHT22;1693;49.602;11.046;2022-12-18T08:01:11;-6.00;99.90
3360;DHT22;1693;49.602;11.046;2022-12-18T08:03:40;-5.80;99.90
3360;DHT22;1693;49.602;11.046;2022-12-18T08:06:08;-5.80;99.90
3360;DHT22;1693;49.602;11.046;2022-12-18T08:08:36;-5.70;99.90
3360;DHT22;1693;49.602;11.046;2022-12-18T08:11:03;-5.50;99.90
3360;DHT22;1693;49.602;11.046;2022-12-18T08:13:31;-5.50;99.90
3360;DHT22;1693;49.602;11.046;2022-12-18T08:16:01;-5.30;99.90
3360;DHT22;1693;49.602;11.046;2022-12-18T08:18:32;-5.20;99.90
3360;DHT22;1693;49.602;11.046;2022-12-18T08:21:08;-5.00;99.90
3360;DHT22;1693;49.602;11.046;2022-12-18T08:23:37;-5.10;99.90
3360;DHT22;1693;49.602;11.046;2022-12-18T08:26:05;-5.00;99.90
3360;DHT22;1693;49.602;11.046;2022-12-18T08:28:33;-4.90;99.90
3360;DHT22;1693;49.602;11.046;2022-12-18T08:31:02;-4.80;99.90
3360;DHT22;1693;49.602;11.046;2022-12-18T08:33:29;-4.80;99.90
3360;DHT22;1693;49.602;11.046;2022-12-18T08:35:58;-4.80;99.90
3360;DHT22;1693;49.602;11.046;2022-12-18T08:38:26;-4.70;99.90
3360;DHT22;1693;49.602;11.046;2022-12-18T08:40:58;-4.60;99.90
3360;DHT22;1693;49.602;11.046;2022-12-18T08:43:27;-4.50;99.90
3360;DHT22;1693;49.602;11.046;2022-12-18T08:46:13;-4.50;99.90
3360;DHT22;1693;49.602;11.046;2022-12-18T08:48:41;-4.20;99.90
3360;DHT22;1693;49.602;11.046;2022-12-18T08:51:15;-4.30;99.90
3360;DHT22;1693;49.602;11.046;2022-12-18T08:53:43;-4.30;99.90
3360;DHT22;1693;49.602;11.046;2022-12-18T08:56:11;-4.10;99.90
3360;DHT22;1693;49.602;11.046;2022-12-18T08:58:40;-4.10;99.90
3360;DHT22;1693;49.602;11.046;2022-12-18T09:01:10;-4.00;99.90
3360;DHT22;1693;49.602;11.046;2022-12-18T09:03:38;-4.10;99.90
3360;DHT22;1693;49.602;11.046;2022-12-18T09:06:07;-4.00;99.90
3360;DHT22;1693;49.602;11.046;2022-12-18T09:08:36;-3.70;99.90
3360;DHT22;1693;49.602;11.046;2022-12-18T09:11:03;-3.70;99.90
3360;DHT22;1693;49.602;11.046;2022-12-18T09:13:30;-3.60;99.90
3360;DHT22;1693;49.602;11.046;2022-12-18T09:16:00;-3.70;99.90
3360;DHT22;1693;49.602;11.046;2022-12-18T09:18:31;-3.60;99.90
3360;DHT22;1693;49.602;11.046;2022-12-18T09:20:59;-3.70;99.90
3360;DHT22;1693;49.602;11.046;2022-12-18T09:23:27;-3.90;99.90
3360;DHT22;1693;49.602;11.046;2022-12-18T09:26:00;-3.80;99.90
3360;DHT22;1693;49.602;11.046;2022-12-18T09:28:28;-3.90;99.90
3360;DHT22;1693;49.602;11.046;2022-12-18T09:30:55;-4.00;99.90
3360;DHT22;1693;49.602;11.046;2022-12-18T09:33:23;-3.90;99.90
3360;DHT22;1693;49.602;11.046;2022-12-18T09:35:52;-3.70;99.90
3360;DHT22;1693;49.602;11.046;2022-12-18T09:38:20;-3.70;99.90
3360;DHT22;1693;49.602;11.046;2022-12-18T09:40:51;-3.60;99.90
3360;DHT22;1693;49.602;11.046;2022-12-18T09:43:24;-3.40;99.90
3360;DHT22;1693;49.602;11.046;2022-12-18T09:45:56;-3.40;99.90
3360;DHT22;1693;49.602;11.046;2022-12-18T09:48:30;-3.50;99.90
3360;DHT22;1693;49.602;11.046;2022-12-18T09:51:02;-3.20;99.90
3360;DHT22;1693;49.602;11.046;2022-12-18T09:53:34;-2.90;99.90
3360;DHT22;1693;49.602;11.046;2022-12-18T09:56:06;-2.90;99.90
3360;DHT22;1693;49.602;11.046;2022-12-18T09:58:42;-2.70;99.90
3360;DHT22;1693;49.602;11.046;2022-12-18T10:01:15;-2.60;99.90
3360;DHT22;1693;49.602;11.046;2022-12-18T10:03:46;-2.80;99.90
3360;DHT22;1693;49.602;11.046;2022-12-18T10:06:27;-2.90;99.90
3360;DHT22;1693;49.602;11.046;2022-12-18T10:09:01;-2.60;99.90
3360;DHT22;1693;49.602;11.046;2022-12-18T10:11:40;-2.60;99.90
3360;DHT22;1693;49.602;11.046;2022-12-18T10:14:18;-2.40;99.90
3360;DHT22;1693;49.602;11.046;2022-12-18T10:16:59;-2.30;99.90
3360;DHT22;1693;49.602;11.046;2022-12-18T10:19:38;-2.00;99.90
3360;DHT22;1693;49.602;11.046;2022-12-18T10:22:14;-1.90;99.90
3360;DHT22;1693;49.602;11.046;2022-12-18T10:24:50;-1.90;99.90
3360;DHT22;1693;49.602;11.046;2022-12-18T10:27:23;-1.80;99.90
3360;DHT22;1693;49.602;11.046;2022-12-18T10:29:54;-1.70;99.90
3360;DHT22;1693;49.602;11.046;2022-12-18T10:32:24;-1.40;99.90
3360;DHT22;1693;49.602;11.046;2022-12-18T10:34:55;-1.20;99.90
3360;DHT22;1693;49.602;11.046;2022-12-18T10:37:24;-1.20;99.90
3360;DHT22;1693;49.602;11.046;2022-12-18T10:40:07;-1.10;99.90
3360;DHT22;1693;49.602;11.046;2022-12-18T10:42:35;-0.70;99.90
3360;DHT22;1693;49.602;11.046;2022-12-18T10:45:10;-0.30;99.90
3360;DHT22;1693;49.602;11.046;2022-12-18T10:47:42;0.10;99.90
3360;DHT22;1693;49.602;11.046;2022-12-18T10:50:20;0.40;99.90
3360;DHT22;1693;49.602;11.046;2022-12-18T10:52:55;0.70;99.90
3360;DHT22;1693;49.602;11.046;2022-12-18T10:55:23;0.40;99.90
3360;DHT22;1693;49.602;11.046;2022-12-18T10:57:53;0.20;99.90
3360;DHT22;1693;49.602;11.046;2022-12-18T11:00:28;0.70;99.90
3360;DHT22;1693;49.602;11.046;2022-12-18T11:02:57;0.40;99.90
3360;DHT22;1693;49.602;11.046;2022-12-18T11:05:28;1.40;99.90
3360;DHT22;1693;49.602;11.046;2022-12-18T11:07:57;2.30;99.90
3360;DHT22;1693;49.602;11.046;2022-12-18T11:10:30;2.40;99.90
3360;DHT22;1693;49.602;11.046;2022-12-18T11:13:10;2.20;99.90
3360;DHT22;1693;49.602;11.046;2022-12-18T11:15:41;2.50;99.90
3360;DHT22;1693;49.602;11.046;2022-12-18T11:18:17;1.70;99.90
3360;DHT22;1693;49.602;11.046;2022-12-18T11:20:51;1.40;99.90
3360;DHT22;1693;49.602;11.046;2022-12-18T11:23:21;1.50;99.90
3360;DHT22;1693;49.602;11.046;2022-12-18T11:25:56;1.10;99.90
3360;DHT22;1693;49.602;11.046;2022-12-18T11:28:29;1.20;99.90
3360;DHT22;1693;49.602;11.046;2022-12-18T11:31:19;1.30;99.90
3360;DHT22;1693;49.602;11.046;2022-12-18T11:36:41;2.20;99.90
3360;DHT22;1693;49.602;11.046;2022-12-18T11:39:16;2.70;99.90
3360;DHT22;1693;49.602;11.046;2022-12-18T11:41:49;2.60;99.90
3360;DHT22;1693;49.602;11.046;2022-12-18T11:44:41;3.00;99.90
3360;DHT22;1693;49.602;11.046;2022-12-18T11:47:16;2.20;99.90
3360;DHT22;1693;49.602;11.046;2022-12-18T11:49:48;2.70;99.90
3360;DHT22;1693;49.602;11.046;2022-12-18T11:52:21;3.30;99.90
3360;DHT22;1693;49.602;11.046;2022-12-18T11:54:52;3.80;99.90
3360;DHT22;1693;49.602;11.046;2022-12-18T11:57:31;4.00;99.90
3360;DHT22;1693;49.602;11.046;2022-12-18T12:00:09;3.50;99.90
3360;DHT22;1693;49.602;11.046;2022-12-18T12:02:57;3.10;99.90
3360;DHT22;1693;49.602;11.046;2022-12-18T12:05:40;2.80;99.90
3360;DHT22;1693;49.602;11.046;2022-12-18T12:08:17;2.40;99.90
3360;DHT22;1693;49.602;11.046;2022-12-18T12:10:57;1.80;99.90
3360;DHT22;1693;49.602;11.046;2022-12-18T12:13:37;1.70;99.90
3360;DHT22;1693;49.602;11.046;2022-12-18T12:16:15;1.10;99.90
3360;DHT22;1693;49.602;11.046;2022-12-18T12:19:12;1.00;99.90
3360;DHT22;1693;49.602;11.046;2022-12-18T12:22:02;1.20;99.90
3360;DHT22;1693;49.602;11.046;2022-12-18T12:24:39;1.20;99.90
3360;DHT22;1693;49.602;11.046;2022-12-18T12:27:17;1.50;99.90
3360;DHT22;1693;49.602;11.046;2022-12-18T12:30:00;1.40;99.90
3360;DHT22;1693;49.602;11.046;2022-12-18T12:32:52;1.20;99.90
3360;DHT22;1693;49.602;11.046;2022-12-18T12:35:32;1.40;99.90
3360;DHT22;1693;49.602;11.046;2022-12-18T12:38:27;1.60;99.90
3360;DHT22;1693;49.602;11.046;2022-12-18T12:40:58;1.90;99.90
3360;DHT22;1693;49.602;11.046;2022-12-18T12:43:33;2.50;99.90
3360;DHT22;1693;49.602;11.046;2022-12-18T12:46:04;3.00;99.90
3360;DHT22;1693;49.602;11.046;2022-12-18T12:48:41;2.50;99.90
3360;DHT22;1693;49.602;11.046;2022-12-18T12:51:16;2.20;99.90
3360;DHT22;1693;49.602;11.046;2022-12-18T12:53:44;1.70;99.90
3360;DHT22;1693;49.602;11.046;2022-12-18T12:56:13;2.20;99.90
3360;DHT22;1693;49.602;11.046;2022-12-18T12:58:49;2.40;99.90
3360;DHT22;1693;49.602;11.046;2022-12-18T13:01:25;2.60;99.90
3360;DHT22;1693;49.602;11.046;2022-12-18T13:04:02;1.90;99.90
3360;DHT22;1693;49.602;11.046;2022-12-18T13:06:40;1.60;99.90
3360;DHT22;1693;49.602;11.046;2022-12-18T13:09:09;1.40;99.90
3360;DHT22;1693;49.602;11.046;2022-12-18T13:11:38;0.80;99.90
3360;DHT22;1693;49.602;11.046;2022-12-18T13:14:29;0.70;99.90
3360;DHT22;1693;49.602;11.046;2022-12-18T13:17:16;0.70;99.90
3360;DHT22;1693;49.602;11.046;2022-12-18T13:19:44;0.70;99.90
3360;DHT22;1693;49.602;11.046;2022-12-18T13:22:24;0.70;99.90
3360;DHT22;1693;49.602;11.046;2022-12-18T13:24:53;0.90;99.90
3360;DHT22;1693;49.602;11.046;2022-12-18T13:30:46;1.00;99.90
3360;DHT22;1693;49.602;11.046;2022-12-18T13:33:41;1.30;99.90
3360;DHT22;1693;49.602;11.046;2022-12-18T13:39:22;0.70;99.90
3360;DHT22;1693;49.602;11.046;2022-12-18T13:41:51;0.40;99.90
3360;DHT22;1693;49.602;11.046;2022-12-18T13:44:29;0.20;99.90
3360;DHT22;1693;49.602;11.046;2022-12-18T13:46:58;0.00;99.90
3360;DHT22;1693;49.602;11.046;2022-12-18T13:49:28;0.00;99.90
3360;DHT22;1693;49.602;11.046;2022-12-18T13:51:59;0.00;99.90
3360;DHT22;1693;49.602;11.046;2022-12-18T13:54:33;-0.20;99.90
3360;DHT22;1693;49.602;11.046;2022-12-18T13:57:02;-0.40;99.90
3360;DHT22;1693;49.602;11.046;2022-12-18T13:59:34;-0.30;99.90
3360;DHT22;1693;49.602;11.046;2022-12-18T14:02:12;-0.30;99.90
3360;DHT22;1693;49.602;11.046;2022-12-18T14:04:39;-0.50;99.90
3360;DHT22;1693;49.602;11.046;2022-12-18T14:07:10;-0.60;99.90
3360;DHT22;1693;49.602;11.046;2022-12-18T14:09:43;-0.80;99.90
3360;DHT22;1693;49.602;11.046;2022-12-18T14:12:16;-1.00;99.90
3360;DHT22;1693;49.602;11.046;2022-12-18T14:15:03;-1.20;99.90
3360;DHT22;1693;49.602;11.046;2022-12-18T14:17:31;-1.10;99.90
3360;DHT22;1693;49.602;11.046;2022-12-18T14:20:00;-1.20;99.90
3360;DHT22;1693;49.602;11.046;2022-12-18T14:22:27;-1.10;99.90
3360;DHT22;1693;49.602;11.046;2022-12-18T14:25:24;-1.20;99.90
3360;DHT22;1693;49.602;11.046;2022-12-18T14:27:52;-1.20;99.90
3360;DHT22;1693;49.602;11.046;2022-12-18T14:30:25;-1.30;99.90
3360;DHT22;1693;49.602;11.046;2022-12-18T14:33:03;-1.40;99.90
3360;DHT22;1693;49.602;11.046;2022-12-18T14:35:30;-1.50;99.90
3360;DHT22;1693;49.602;11.046;2022-12-18T14:38:23;-1.70;99.90
3360;DHT22;1693;49.602;11.046;2022-12-18T14:40:57;-1.70;99.90
3360;DHT22;1693;49.602;11.046;2022-12-18T14:43:25;-1.60;99.90
3360;DHT22;1693;49.602;11.046;2022-12-18T14:45:52;-1.80;99.90
3360;DHT22;1693;49.602;11.046;2022-12-18T14:48:21;-1.90;99.90
3360;DHT22;1693;49.602;11.046;2022-12-18T14:50:56;-2.10;99.90
3360;DHT22;1693;49.602;11.046;2022-12-18T14:53:36;-2.20;99.90
3360;DHT22;1693;49.602;11.046;2022-12-18T14:56:14;-2.30;99.90
3360;DHT22;1693;49.602;11.046;2022-12-18T14:58:48;-2.30;99.90
3360;DHT22;1693;49.602;11.046;2022-12-18T15:01:26;-2.50;99.90
3360;DHT22;1693;49.602;11.046;2022-12-18T15:03:55;-2.60;99.90
3360;DHT22;1693;49.602;11.046;2022-12-18T15:06:28;-2.70;99.90
3360;DHT22;1693;49.602;11.046;2022-12-18T15:08:58;-2.80;99.90
3360;DHT22;1693;49.602;11.046;2022-12-18T15:11:33;-2.90;99.90
3360;DHT22;1693;49.602;11.046;2022-12-18T15:14:30;-3.00;99.90
3360;DHT22;1693;49.602;11.046;2022-12-18T15:17:00;-3.10;99.90
3360;DHT22;1693;49.602;11.046;2022-12-18T15:19:37;-3.20;99.90
3360;DHT22;1693;49.602;11.046;2022-12-18T15:22:18;-3.20;99.90
3360;DHT22;1693;49.602;11.046;2022-12-18T15:24:48;-3.20;99.90
3360;DHT22;1693;49.602;11.046;2022-12-18T15:27:30;-3.30;99.90
3360;DHT22;1693;49.602;11.046;2022-12-18T15:30:20;-3.40;99.90
3360;DHT22;1693;49.602;11.046;2022-12-18T15:32:49;-3.40;99.90
3360;DHT22;1693;49.602;11.046;2022-12-18T15:35:19;-3.40;99.90
3360;DHT22;1693;49.602;11.046;2022-12-18T15:37:47;-3.30;99.90
3360;DHT22;1693;49.602;11.046;2022-12-18T15:40:15;-3.40;99.90
3360;DHT22;1693;49.602;11.046;2022-12-18T15:42:45;-3.30;99.90
3360;DHT22;1693;49.602;11.046;2022-12-18T15:45:32;-3.40;99.90
3360;DHT22;1693;49.602;11.046;2022-12-18T15:48:00;-3.40;99.90
3360;DHT22;1693;49.602;11.046;2022-12-18T15:50:28;-3.40;99.90
3360;DHT22;1693;49.602;11.046;2022-12-18T15:52:57;-3.40;99.90
3360;DHT22;1693;49.602;11.046;2022-12-18T15:55:24;-3.40;99.90
3360;DHT22;1693;49.602;11.046;2022-12-18T15:58:11;-3.40;99.90
3360;DHT22;1693;49.602;11.046;2022-12-18T16:00:40;-3.50;99.90
3360;DHT22;1693;49.602;11.046;2022-12-18T16:03:08;-3.50;99.90
3360;DHT22;1693;49.602;11.046;2022-12-18T16:05:37;-3.60;99.90
3360;DHT22;1693;49.602;11.046;2022-12-18T16:08:06;-3.60;99.90
3360;DHT22;1693;49.602;11.046;2022-12-18T16:10:34;-3.60;99.90
3360;DHT22;1693;49.602;11.046;2022-12-18T16:13:01;-3.60;99.90
3360;DHT22;1693;49.602;11.046;2022-12-18T16:15:31;-3.60;99.90
3360;DHT22;1693;49.602;11.046;2022-12-18T16:17:59;-3.70;99.90
3360;DHT22;1693;49.602;11.046;2022-12-18T16:20:28;-3.70;99.90
3360;DHT22;1693;49.602;11.046;2022-12-18T16:22:55;-3.70;99.90
3360;DHT22;1693;49.602;11.046;2022-12-18T16:25:24;-3.70;99.90